createdAt,value
2018-11-06T00:00:29.043Z,97184.24
2018-11-06T00:03:18.489Z,97180.30
2018-11-06T00:05:47.955Z,97184.75
2018-11-06T00:08:17.722Z,97186.34
2018-11-06T00:10:48.071Z,97189.50
2018-11-06T00:13:17.522Z,97183.69
2018-11-06T00:16:05.644Z,97178.42
2018-11-06T00:18:35.167Z,97187.32
2018-11-06T00:21:24.290Z,97181.12
2018-11-06T00:23:54.137Z,97179.00
2018-11-06T00:26:42.336Z,97173.92
2018-11-06T00:29:11.836Z,97175.06
2018-11-06T00:31:41.297Z,97177.06
2018-11-06T00:34:11.241Z,97166.19
2018-11-06T00:36:41.242Z,97169.89
2018-11-06T00:39:11.017Z,97174.89
2018-11-06T00:41:40.813Z,97168.20
2018-11-06T00:44:10.512Z,97174.34
2018-11-06T00:46:40.482Z,97171.92
2018-11-06T00:49:10.293Z,97171.18
2018-11-06T00:51:58.716Z,97173.68
2018-11-06T00:54:29.393Z,97172.25
2018-11-06T00:57:17.793Z,97170.70
2018-11-06T01:00:06.634Z,97165.55
2018-11-06T01:02:36.144Z,97164.17
2018-11-06T01:05:06.503Z,97166.52
2018-11-06T01:07:54.719Z,97169.66
2018-11-06T01:10:43.289Z,97156.18
2018-11-06T01:13:12.844Z,97162.32
2018-11-06T01:15:43.226Z,97155.95
2018-11-06T01:18:12.719Z,97160.38
2018-11-06T01:20:42.321Z,97161.25
2018-11-06T01:23:12.213Z,97157.30
2018-11-06T01:25:42.066Z,97156.26
2018-11-06T01:28:12.431Z,97149.02
2018-11-06T01:31:01.193Z,97147.64
2018-11-06T01:33:49.447Z,97153.62
2018-11-06T01:36:19.036Z,97150.87
2018-11-06T01:38:48.543Z,97153.69
2018-11-06T01:41:18.294Z,97154.31
2018-11-06T01:47:10.726Z,97151.52
2018-11-06T01:49:41.055Z,97153.44
2018-11-06T01:52:11.345Z,97145.28
2018-11-06T01:54:41.051Z,97142.47
2018-11-06T01:57:10.902Z,97152.79
2018-11-06T01:59:59.629Z,97150.60
2018-11-06T02:02:29.150Z,97154.22
2018-11-06T02:04:59.942Z,97156.08
2018-11-06T02:07:29.373Z,97160.68
2018-11-06T02:10:18.216Z,97157.39
2018-11-06T02:12:48.694Z,97152.30
2018-11-06T02:15:18.470Z,97155.10
2018-11-06T02:18:07.193Z,97151.71
2018-11-06T02:20:56.674Z,97144.30
2018-11-06T02:23:26.616Z,97136.38
2018-11-06T02:25:56.579Z,97133.48
2018-11-06T02:28:44.791Z,97132.27
2018-11-06T02:31:14.723Z,97138.62
2018-11-06T02:34:03.248Z,97129.04
2018-11-06T02:36:32.698Z,97130.73
2018-11-06T02:39:02.571Z,97134.68
2018-11-06T02:41:32.461Z,97126.56
2018-11-06T02:44:02.214Z,97122.84
2018-11-06T02:46:32.143Z,97121.05
2018-11-06T02:49:20.806Z,97122.80
2018-11-06T02:52:08.945Z,97121.83
2018-11-06T02:54:57.784Z,97120.06
2018-11-06T02:57:28.045Z,97123.57
2018-11-06T02:59:57.803Z,97131.55
2018-11-06T03:02:46.299Z,97134.03
2018-11-06T03:05:15.810Z,97133.54
2018-11-06T03:07:45.281Z,97136.54
2018-11-06T03:10:15.311Z,97139.11
2018-11-06T03:13:04.533Z,97135.92
2018-11-06T03:15:35.480Z,97137.30
2018-11-06T03:18:05.272Z,97142.40
2018-11-06T03:20:53.694Z,97144.98
2018-11-06T03:23:23.537Z,97142.13
2018-11-06T03:25:53.685Z,97134.37
2018-11-06T03:28:23.557Z,97137.69
2018-11-06T03:30:53.556Z,97137.20
2018-11-06T03:33:23.703Z,97130.57
2018-11-06T03:35:53.462Z,97131.34
2018-11-06T03:38:23.926Z,97137.95
2018-11-06T03:40:53.661Z,97136.25
2018-11-06T03:43:42.311Z,97132.63
2018-11-06T03:46:11.746Z,97129.17
2018-11-06T03:48:59.973Z,97133.45
2018-11-06T03:51:30.166Z,97137.33
2018-11-06T03:53:59.650Z,97145.06
2018-11-06T03:56:29.439Z,97150.10
2018-11-06T03:58:59.303Z,97155.49
2018-11-06T04:01:29.471Z,97154.36
2018-11-06T04:04:17.705Z,97152.09
2018-11-06T04:06:48.158Z,97160.84
2018-11-06T04:09:17.999Z,97167.83
2018-11-06T04:11:47.860Z,97159.59
2018-11-06T04:14:36.711Z,97157.23
2018-11-06T04:17:06.614Z,97161.72
2018-11-06T04:19:55.707Z,97169.80
2018-11-06T04:22:45.509Z,97170.67
2018-11-06T04:25:14.964Z,97162.86
2018-11-06T04:27:44.917Z,97153.02
2018-11-06T04:30:15.187Z,97163.84
2018-11-06T04:33:03.322Z,97162.55
2018-11-06T04:35:32.843Z,97163.42
2018-11-06T04:38:02.595Z,97158.80
2018-11-06T04:40:32.055Z,97164.38
2018-11-06T04:43:01.512Z,97166.16
2018-11-06T04:45:31.306Z,97162.30
2018-11-06T04:48:00.906Z,97157.37
2018-11-06T04:50:31.201Z,97156.59
2018-11-06T04:53:00.825Z,97152.51
2018-11-06T04:55:31.447Z,97153.06
2018-11-06T04:58:00.967Z,97146.72
2018-11-06T05:00:30.744Z,97144.28
2018-11-06T05:03:00.509Z,97146.14
2018-11-06T05:05:30.426Z,97150.34
2018-11-06T05:07:59.921Z,97140.84
2018-11-06T05:10:29.389Z,97141.63
2018-11-06T05:12:58.851Z,97136.30
2018-11-06T05:15:28.567Z,97134.56
2018-11-06T05:17:59.438Z,97129.09
2018-11-06T05:20:46.886Z,97127.55
2018-11-06T05:23:16.941Z,97126.73
2018-11-06T05:25:46.679Z,97131.38
2018-11-06T05:28:16.538Z,97130.39
2018-11-06T05:30:46.388Z,97134.73
2018-11-06T05:33:16.531Z,97134.70
2018-11-06T05:35:45.997Z,97134.39
2018-11-06T05:38:34.514Z,97126.87
2018-11-06T05:41:08.250Z,97128.07
2018-11-06T05:43:56.784Z,97120.73
2018-11-06T05:46:26.248Z,97124.75
2018-11-06T05:48:55.732Z,97124.48
2018-11-06T05:51:44.192Z,97128.44
2018-11-06T05:54:13.695Z,97125.16
2018-11-06T05:57:01.934Z,97131.97
2018-11-06T05:59:32.114Z,97132.56
2018-11-06T06:02:01.558Z,97137.54
2018-11-06T06:04:50.042Z,97149.47
2018-11-06T06:07:38.451Z,97147.61
2018-11-06T06:10:08.322Z,97146.88
2018-11-06T06:12:38.464Z,97141.55
2018-11-06T06:15:09.273Z,97143.03
2018-11-06T06:17:59.937Z,97142.91
2018-11-06T06:20:46.823Z,97141.53
2018-11-06T06:23:16.823Z,97141.98
2018-11-06T06:25:46.788Z,97137.70
2018-11-06T06:28:16.551Z,97129.63
2018-11-06T06:31:04.891Z,97123.30
2018-11-06T06:33:53.559Z,97126.31
2018-11-06T06:36:23.307Z,97130.61
2018-11-06T06:39:12.075Z,97132.66
2018-11-06T06:42:00.200Z,97127.86
2018-11-06T06:44:29.934Z,97137.35
2018-11-06T06:46:59.937Z,97145.98
2018-11-06T06:49:29.895Z,97143.98
2018-11-06T06:52:18.440Z,97138.83
2018-11-06T06:54:48.010Z,97131.09
2018-11-06T06:57:18.017Z,97123.30
2018-11-06T06:59:47.784Z,97129.47
2018-11-06T07:02:17.906Z,97130.69
2018-11-06T07:04:47.347Z,97129.58
2018-11-06T07:07:16.807Z,97126.32
2018-11-06T07:09:46.257Z,97130.89
2018-11-06T07:12:16.454Z,97129.84
2018-11-06T07:15:04.925Z,97118.57
2018-11-06T07:17:34.396Z,97123.02
2018-11-06T07:20:23.084Z,97127.92
2018-11-06T07:22:52.883Z,97132.73
2018-11-06T07:25:22.403Z,97127.22
2018-11-06T07:27:51.880Z,97137.41
2018-11-06T07:30:40.788Z,97131.88
2018-11-06T07:33:29.211Z,97127.06
2018-11-06T07:35:59.074Z,97131.03
2018-11-06T07:38:29.110Z,97121.30
2018-11-06T07:40:58.740Z,97119.90
2018-11-06T07:43:28.583Z,97115.73
2018-11-06T07:45:58.636Z,97119.61
2018-11-06T07:48:30.746Z,97119.87
2018-11-06T07:51:00.570Z,97120.36
2018-11-06T07:53:49.127Z,97120.06
2018-11-06T07:56:38.214Z,97127.33
2018-11-06T07:59:26.625Z,97121.03
2018-11-06T08:02:15.131Z,97127.30
2018-11-06T08:04:45.542Z,97118.77
2018-11-06T08:07:15.468Z,97123.12
2018-11-06T08:09:45.445Z,97134.59
2018-11-06T08:12:15.811Z,97145.31
2018-11-06T08:15:04.339Z,97135.60
2018-11-06T08:17:52.942Z,97136.97
2018-11-06T08:20:22.480Z,97132.05
2018-11-06T08:22:51.906Z,97130.09
2018-11-06T08:25:21.644Z,97134.41
2018-11-06T08:28:10.343Z,97116.96
2018-11-06T08:30:39.904Z,97116.47
2018-11-06T08:33:28.812Z,97119.81
2018-11-06T08:36:17.578Z,97118.16
2018-11-06T08:38:47.136Z,97117.56
2018-11-06T08:41:16.665Z,97110.66
2018-11-06T08:43:46.535Z,97108.09
2018-11-06T08:46:16.062Z,97111.09
2018-11-06T08:48:45.643Z,97113.66
2018-11-06T08:51:15.135Z,97121.05
2018-11-06T08:53:45.049Z,97125.23
2018-11-06T08:56:15.648Z,97122.02
2018-11-06T08:58:45.093Z,97119.01
2018-11-06T09:01:15.211Z,97122.57
2018-11-06T09:03:45.016Z,97110.06
2018-11-06T09:06:14.524Z,97108.47
2018-11-06T09:09:02.967Z,97107.56
2018-11-06T09:11:32.469Z,97106.56
2018-11-06T09:14:20.885Z,97105.66
2018-11-06T09:16:51.099Z,97098.82
2018-11-06T09:19:21.732Z,97105.18
2018-11-06T09:22:10.437Z,97106.78
2018-11-06T09:24:59.205Z,97104.27
2018-11-06T09:27:47.660Z,97107.70
2018-11-06T09:30:18.937Z,97107.66
2018-11-06T09:33:07.121Z,97103.38
2018-11-06T09:35:55.855Z,97102.80
2018-11-06T09:38:25.654Z,97100.97
2018-11-06T09:41:14.341Z,97102.73
2018-11-06T09:43:44.094Z,97106.76
2018-11-06T09:46:14.356Z,97108.61
2018-11-06T09:49:03.163Z,97111.72
2018-11-06T09:51:33.416Z,97096.09
2018-11-06T09:54:21.882Z,97099.31
2018-11-06T09:56:51.394Z,97094.83
2018-11-06T09:59:20.856Z,97097.45
2018-11-06T10:02:10.144Z,97094.06
2018-11-06T10:04:40.395Z,97101.27
2018-11-06T10:07:10.586Z,97092.80
2018-11-06T10:09:58.488Z,97092.44
2018-11-06T10:12:27.930Z,97087.02
2018-11-06T10:14:57.455Z,97082.75
2018-11-06T10:17:27.723Z,97088.45
2018-11-06T10:19:57.452Z,97079.11
2018-11-06T10:22:27.301Z,97070.89
2018-11-06T10:24:57.124Z,97078.27
2018-11-06T10:27:45.924Z,97088.83
2018-11-06T10:30:17.185Z,97075.14
2018-11-06T10:33:05.297Z,97075.05
2018-11-06T10:35:34.770Z,97076.13
2018-11-06T10:38:23.315Z,97068.61
2018-11-06T10:40:52.871Z,97067.22
2018-11-06T10:43:22.908Z,97068.85
2018-11-06T10:45:53.089Z,97066.42
2018-11-06T10:48:24.256Z,97060.86
2018-11-06T10:50:55.233Z,97054.77
2018-11-06T10:53:25.074Z,97049.28
2018-11-06T10:55:55.307Z,97047.42
2018-11-06T10:58:43.443Z,97041.69
2018-11-06T11:01:31.620Z,97044.69
2018-11-06T11:04:19.828Z,97036.97
2018-11-06T11:07:08.462Z,97029.72
2018-11-06T11:09:57.289Z,97029.72
2018-11-06T11:12:27.222Z,97016.08
2018-11-06T11:14:57.150Z,97019.41
2018-11-06T11:17:45.593Z,97010.94
2018-11-06T11:20:34.547Z,97013.53
2018-11-06T11:23:03.990Z,97012.44
2018-11-06T11:25:52.420Z,96996.20
2018-11-06T11:28:23.290Z,97005.13
2018-11-06T11:30:52.996Z,97005.13
2018-11-06T11:33:22.482Z,96998.53
2018-11-06T11:35:51.970Z,96997.87
2018-11-06T11:38:21.406Z,96986.70
2018-11-06T11:40:51.212Z,96996.44
2018-11-06T11:43:39.960Z,96990.23
2018-11-06T11:46:09.857Z,96990.23
2018-11-06T11:48:58.345Z,96988.52
2018-11-06T11:51:46.751Z,96972.45
2018-11-06T11:54:16.246Z,96972.45
2018-11-06T11:56:46.024Z,96993.09
2018-11-06T11:59:15.711Z,96987.50
2018-11-06T12:01:45.183Z,96986.48
2018-11-06T12:04:15.379Z,96992.50
2018-11-06T12:06:45.572Z,96977.48
2018-11-06T12:09:15.545Z,96985.66
2018-11-06T12:12:04.240Z,96974.20
2018-11-06T12:14:33.726Z,96974.20
2018-11-06T12:17:03.767Z,96982.04
2018-11-06T12:19:52.531Z,96966.91
2018-11-06T12:22:41.331Z,96972.25
2018-11-06T12:25:30.326Z,96958.13
2018-11-06T12:28:01.077Z,96956.63
2018-11-06T12:30:29.456Z,96956.63
2018-11-06T12:33:18.176Z,96964.88
2018-11-06T12:36:06.607Z,96945.80
2018-11-06T12:38:55.748Z,96945.80
2018-11-06T12:41:25.321Z,96954.42
2018-11-06T12:44:14.083Z,96950.91
2018-11-06T12:47:02.723Z,96950.91
2018-11-06T12:49:32.629Z,96960.17
2018-11-06T12:52:21.000Z,96953.69
2018-11-06T12:55:10.506Z,96953.95
2018-11-06T12:57:58.767Z,96953.95
2018-11-06T13:00:29.101Z,96949.41
2018-11-06T13:02:59.889Z,96943.05
2018-11-06T13:05:49.496Z,96908.33
2018-11-06T13:08:38.592Z,96908.33
2018-11-06T13:11:27.370Z,96927.97
2018-11-06T13:13:57.173Z,96927.97
2018-11-06T13:16:45.689Z,96925.39
2018-11-06T13:19:34.464Z,96935.30
2018-11-06T13:22:23.056Z,96910.47
2018-11-06T13:25:11.497Z,96931.13
2018-11-06T13:28:00.510Z,96931.13
2018-11-06T13:30:49.576Z,96932.22
2018-11-06T13:33:38.953Z,96929.02
2018-11-06T13:36:09.847Z,96928.45
2018-11-06T13:38:58.650Z,96909.70
2018-11-06T13:41:28.119Z,96909.70
2018-11-06T13:44:17.101Z,96928.70
2018-11-06T13:46:46.438Z,96928.70
2018-11-06T13:49:16.356Z,96921.05
2018-11-06T13:52:05.204Z,96921.83
2018-11-06T13:54:53.942Z,96906.56
2018-11-06T13:57:42.817Z,96914.59
2018-11-06T14:00:14.777Z,96908.52
2018-11-06T14:03:03.580Z,96904.86
2018-11-06T14:05:52.451Z,96918.67
2018-11-06T14:08:22.359Z,96918.67
2018-11-06T14:10:52.315Z,96913.47
2018-11-06T14:13:40.775Z,96918.87
2018-11-06T14:16:29.486Z,96914.33
2018-11-06T14:18:59.689Z,96914.33
2018-11-06T14:21:48.420Z,96922.25
2018-11-06T14:24:37.431Z,96929.44
2018-11-06T14:27:07.036Z,96929.44
2018-11-06T14:29:36.479Z,96934.12
2018-11-06T14:32:25.104Z,96925.20
2018-11-06T14:34:55.089Z,96938.73
2018-11-06T14:37:44.294Z,96937.19
2018-11-06T14:40:32.546Z,96937.19
2018-11-06T14:43:02.564Z,96939.73
2018-11-06T14:45:32.942Z,96933.70
2018-11-06T14:48:21.841Z,96942.55
2018-11-06T14:51:10.306Z,96942.55
2018-11-06T14:53:40.146Z,96946.09
2018-11-06T14:56:09.726Z,96951.06
2018-11-06T14:58:39.225Z,96948.04
2018-11-06T15:01:27.766Z,96938.39
2018-11-06T15:04:15.961Z,96938.39
2018-11-06T15:06:45.428Z,96949.33
2018-11-06T15:09:33.971Z,96959.44
2018-11-06T15:12:03.472Z,96959.44
2018-11-06T15:14:51.949Z,96952.80
2018-11-06T15:17:22.433Z,96941.89
2018-11-06T15:19:52.626Z,96954.58
2018-11-06T15:22:22.705Z,96954.58
2018-11-06T15:24:52.317Z,96959.45
2018-11-06T15:27:21.902Z,96953.47
2018-11-06T15:29:51.424Z,96961.56
2018-11-06T15:32:39.709Z,96965.59
2018-11-06T15:35:10.574Z,96955.98
2018-11-06T15:37:58.782Z,96966.85
2018-11-06T15:40:28.621Z,96966.09
2018-11-06T15:42:59.726Z,96966.81
2018-11-06T15:45:48.391Z,96968.36
2018-11-06T15:48:18.712Z,96974.80
2018-11-06T15:51:07.154Z,96972.19
2018-11-06T15:53:36.667Z,96981.88
2018-11-06T15:56:06.276Z,96989.63
2018-11-06T15:58:36.009Z,96985.61
2018-11-06T16:01:05.843Z,96992.30
2018-11-06T16:03:35.292Z,96992.73
2018-11-06T16:06:05.043Z,97012.80
2018-11-06T16:08:35.147Z,97012.65
2018-11-06T16:11:04.977Z,97028.84
2018-11-06T16:13:34.896Z,97032.26
2018-11-06T16:16:04.743Z,97034.30
2018-11-06T16:18:35.445Z,97045.28
2018-11-06T16:21:05.471Z,97054.02
2018-11-06T16:23:34.960Z,97069.00
2018-11-06T16:26:04.422Z,97084.84
2018-11-06T16:28:52.801Z,97104.12
2018-11-06T16:31:23.531Z,97124.98
2018-11-06T16:33:53.563Z,97140.16
2018-11-06T16:36:42.512Z,97157.83
2018-11-06T16:39:30.894Z,97149.78
2018-11-06T16:42:00.835Z,97148.76
2018-11-06T16:44:49.657Z,97146.62
2018-11-06T16:47:19.515Z,97160.54
2018-11-06T16:49:49.366Z,97165.73
2018-11-06T16:52:19.230Z,97159.91
2018-11-06T16:54:48.975Z,97155.67
2018-11-06T16:57:19.362Z,97156.48
2018-11-06T16:59:49.625Z,97165.50
2018-11-06T17:02:19.429Z,97175.80
2018-11-06T17:04:48.879Z,97172.73
2018-11-06T17:07:18.784Z,97174.88
2018-11-06T17:09:49.116Z,97177.16
2018-11-06T17:12:18.647Z,97176.91
2018-11-06T17:15:26.079Z,97182.11
2018-11-06T17:17:55.782Z,97193.23
2018-11-06T17:20:25.508Z,97206.25
2018-11-06T17:23:13.909Z,97214.49
2018-11-06T17:25:43.625Z,97212.41
2018-11-06T17:28:32.398Z,97216.63
2018-11-06T17:31:02.743Z,97218.55
2018-11-06T17:33:50.945Z,97222.09
2018-11-06T17:36:40.103Z,97223.27
2018-11-06T17:39:12.258Z,97229.91
2018-11-06T17:41:41.705Z,97232.20
2018-11-06T17:44:11.447Z,97236.41
2018-11-06T17:46:40.918Z,97232.41
2018-11-06T17:49:10.379Z,97249.48
2018-11-06T17:51:39.871Z,97251.11
2018-11-06T17:54:28.792Z,97252.30
2018-11-06T17:57:17.231Z,97252.78
2018-11-06T18:00:05.647Z,97251.52
2018-11-06T18:02:35.175Z,97258.29
2018-11-06T18:05:04.879Z,97269.20
2018-11-06T18:07:53.297Z,97276.19
2018-11-06T18:10:23.355Z,97285.81
2018-11-06T18:12:52.770Z,97285.64
2018-11-06T18:15:41.201Z,97277.66
2018-11-06T18:18:10.702Z,97288.47
2018-11-06T18:20:40.623Z,97300.55
2018-11-06T18:23:10.073Z,97308.96
2018-11-06T18:25:58.616Z,97312.89
2018-11-06T18:28:48.147Z,97312.53
2018-11-06T18:31:18.530Z,97310.80
2018-11-06T18:33:48.337Z,97313.80
2018-11-06T18:36:18.159Z,97309.98
2018-11-06T18:39:07.392Z,97317.67
2018-11-06T18:41:36.885Z,97321.48
2018-11-06T18:44:06.365Z,97331.92
2018-11-06T18:46:35.992Z,97333.05
2018-11-06T18:49:06.210Z,97341.67
2018-11-06T18:51:54.429Z,97340.76
2018-11-06T18:54:23.969Z,97340.50
2018-11-06T18:56:53.509Z,97346.59
2018-11-06T18:59:41.677Z,97335.30
2018-11-06T19:02:11.139Z,97342.26
2018-11-06T19:04:40.832Z,97346.63
2018-11-06T19:07:29.833Z,97346.85
2018-11-06T19:09:59.291Z,97354.33
2018-11-06T19:12:29.032Z,97355.33
2018-11-06T19:14:58.865Z,97358.08
2018-11-06T19:17:28.396Z,97348.94
2018-11-06T19:19:57.921Z,97350.77
2018-11-06T19:22:27.408Z,97337.20
2018-11-06T19:25:16.401Z,97338.67
2018-11-06T19:27:46.147Z,97341.02
2018-11-06T19:30:35.017Z,97338.44
2018-11-06T19:33:23.766Z,97337.41
2018-11-06T19:35:53.997Z,97344.08
2018-11-06T19:38:23.475Z,97354.41
2018-11-06T19:41:12.057Z,97351.01
2018-11-06T19:43:41.563Z,97348.81
2018-11-06T19:46:11.712Z,97347.27
2018-11-06T19:48:41.474Z,97350.88
2018-11-06T19:51:11.242Z,97362.51
2018-11-06T19:53:41.643Z,97388.29
2018-11-06T19:56:12.390Z,97382.61
2018-11-06T19:58:44.447Z,97391.56
2018-11-06T20:01:32.821Z,97391.44
2018-11-06T20:04:02.418Z,97393.91
2018-11-06T20:06:50.746Z,97389.84
2018-11-06T20:09:20.786Z,97397.32
2018-11-06T20:11:50.862Z,97396.09
2018-11-06T20:14:20.984Z,97399.47
2018-11-06T20:16:51.617Z,97402.78
2018-11-06T20:19:21.989Z,97406.69
2018-11-06T20:21:52.171Z,97413.59
2018-11-06T20:24:24.012Z,97419.84
2018-11-06T20:27:12.857Z,97419.98
2018-11-06T20:29:44.743Z,97426.17
2018-11-06T20:32:52.704Z,97407.52
2018-11-06T20:35:23.851Z,97413.25
2018-11-06T20:38:12.784Z,97415.11
2018-11-06T20:40:43.887Z,97410.06
2018-11-06T20:43:14.410Z,97411.09
2018-11-06T20:45:44.222Z,97399.08
2018-11-06T20:48:13.995Z,97398.38
2018-11-06T20:50:43.518Z,97398.73
2018-11-06T20:53:13.759Z,97402.56
2018-11-06T20:55:43.993Z,97409.44
2018-11-06T20:58:13.429Z,97413.48
2018-11-06T21:00:43.239Z,97418.66
2018-11-06T21:03:13.164Z,97418.03
2018-11-06T21:05:43.412Z,97411.02
2018-11-06T21:08:13.197Z,97404.29
2018-11-06T21:10:43.558Z,97411.42
2018-11-06T21:13:31.948Z,97414.95
2018-11-06T21:16:20.392Z,97409.54
2018-11-06T21:18:50.508Z,97410.56
2018-11-06T21:21:20.364Z,97408.08
2018-11-06T21:24:08.539Z,97420.31
2018-11-06T21:26:57.946Z,97433.10
2018-11-06T21:29:28.079Z,97432.47
2018-11-06T21:31:57.667Z,97426.30
2018-11-06T21:34:27.167Z,97424.84
2018-11-06T21:36:57.856Z,97424.63
2018-11-06T21:39:46.308Z,97425.52
2018-11-06T21:42:15.808Z,97430.80
2018-11-06T21:44:46.307Z,97425.45
2018-11-06T21:47:15.756Z,97420.53
2018-11-06T21:49:45.724Z,97424.92
2018-11-06T21:52:15.697Z,97422.95
2018-11-06T21:55:03.953Z,97422.17
2018-11-06T21:57:33.478Z,97412.92
2018-11-06T22:00:03.339Z,97406.61
2018-11-06T22:02:51.556Z,97412.55
2018-11-06T22:05:39.982Z,97418.94
2018-11-06T22:08:09.928Z,97416.34
2018-11-06T22:10:58.061Z,97420.39
2018-11-06T22:13:27.528Z,97421.91
2018-11-06T22:15:57.992Z,97428.30
2018-11-06T22:18:28.029Z,97429.30
2018-11-06T22:21:16.720Z,97430.67
2018-11-06T22:23:46.630Z,97434.21
2018-11-06T22:26:16.460Z,97432.13
2018-11-06T22:29:04.844Z,97438.29
2018-11-06T22:31:53.635Z,97440.41
2018-11-06T22:34:23.623Z,97443.70
2018-11-06T22:37:12.091Z,97439.25
2018-11-06T22:40:00.541Z,97437.23
2018-11-06T22:42:30.343Z,97433.67
2018-11-06T22:44:59.874Z,97432.30
2018-11-06T22:47:29.325Z,97432.30
2018-11-06T22:49:59.567Z,97448.46
2018-11-06T22:52:29.287Z,97447.02
2018-11-06T22:54:59.157Z,97439.56
2018-11-06T22:57:28.719Z,97434.55
2018-11-06T22:59:58.798Z,97442.80
2018-11-06T23:02:28.637Z,97436.07
2018-11-06T23:04:59.249Z,97435.77
2018-11-06T23:07:47.409Z,97436.25
2018-11-06T23:10:17.461Z,97436.73
2018-11-06T23:12:46.991Z,97438.82
2018-11-06T23:15:35.972Z,97450.48
2018-11-06T23:18:24.221Z,97445.56
2018-11-06T23:20:54.082Z,97441.34
2018-11-06T23:23:24.027Z,97439.56
2018-11-06T23:26:12.936Z,97440.20
2018-11-06T23:28:43.188Z,97443.33
2018-11-06T23:31:12.745Z,97441.83
2018-11-06T23:33:43.632Z,97438.08
2018-11-06T23:36:13.344Z,97439.56
2018-11-06T23:38:43.611Z,97445.56
2018-11-06T23:41:13.484Z,97439.89
2018-11-06T23:43:43.238Z,97442.05
2018-11-06T23:46:13.151Z,97438.82
2018-11-06T23:48:43.578Z,97442.89
2018-11-06T23:51:13.486Z,97450.98
2018-11-06T23:53:43.365Z,97452.27
2018-11-06T23:56:13.291Z,97457.04
2018-11-06T23:58:43.674Z,97455.58
